Cedarville, Illinois
Current Conditions -  °F | °C
As of 3:35 AM on Tuesday 21 Oct 2014 (Local Time) from KFEP Reporting Station
Clear Clear  
Wind Chill: 36°   Ceiling: Unl
Heat Index: 39°   Visibility: 10mi
Dew Point: 37°   Wind: 5mph
Humidity: 91%   Direction: 320°NW
Pressure: 30.08"   Gusts: NA
Location:  42.38°N, 89.63°W
Report Text: KFEP 210835Z AUTO 32004KT 10SM CLR 04/03 A3008 RMK AO2 T00400027
Loading
Personal Weather Stations






























Interactive Weather Map
Tropical Storm Tracking
New forecast layout! Learn more

10-Day Weather Forecast

Advertisements
Track Severe Weather on mobile